Time;durP1;ratioP1;P1;durP2;ratioP2;P2;SDS_P1;SDS_P2;PMS_P1;PMS_P2;Temp;Humidity;BMP_temperature;BMP_pressure;BME280_temperature;BME280_humidity;BME280_pressure;Samples;Min_cycle;Max_cycle;Signal;HPM_P1;HPM_P2
2022/07/26 00:02:09;;;;;;;13.10;12.70;;;25.30;18.70;;;;;;6216252;23;20211;-72
2022/07/26 00:04:34;;;;;;;13.63;13.00;;;24.90;19.50;;;;;;6214985;23;20469;-72
2022/07/26 00:07:00;;;;;;;12.70;12.30;;;24.70;20.00;;;;;;6215157;23;20155;-72
2022/07/26 00:09:26;;;;;;;13.27;12.63;;;24.80;19.70;;;;;;6216297;23;20182;-72
2022/07/26 00:11:52;;;;;;;13.73;12.77;;;25.10;19.20;;;;;;6214406;23;20234;-72
2022/07/26 00:14:18;;;;;;;12.60;12.10;;;25.10;19.20;;;;;;6214438;23;20191;-72
2022/07/26 00:16:44;;;;;;;13.10;12.50;;;25.20;19.70;;;;;;6215043;23;20178;-72
2022/07/26 00:19:10;;;;;;;12.40;12.00;;;25.00;19.60;;;;;;6214664;23;20383;-72
2022/07/26 00:21:36;;;;;;;12.30;11.90;;;24.60;20.40;;;;;;6214743;23;20450;-72
2022/07/26 00:24:09;;;;;;;12.83;12.30;;;24.80;20.10;;;;;;6214603;23;20772;-72
2022/07/26 00:26:34;;;;;;;13.33;12.83;;;24.70;20.40;;;;;;6214596;23;20382;-72
2022/07/26 00:29:02;;;;;;;12.70;12.20;;;24.70;20.60;;;;;;6214906;23;20382;-72
2022/07/26 00:31:29;;;;;;;12.00;11.60;;;24.50;20.60;;;;;;6214245;23;20160;-72
2022/07/26 00:33:55;;;;;;;13.47;12.90;;;24.40;20.90;;;;;;6216327;23;20386;-72
2022/07/26 00:36:21;;;;;;;14.10;13.20;;;24.30;21.00;;;;;;6214426;23;20860;-72
2022/07/26 00:38:46;;;;;;;13.43;12.87;;;24.30;21.20;;;;;;6214504;23;20379;-72
2022/07/26 00:41:12;;;;;;;13.40;12.80;;;24.30;21.20;;;;;;6214171;23;20180;-72
2022/07/26 00:43:58;;;;;;;12.70;12.20;;;24.30;21.20;;;;;;6214523;23;20213;-72
2022/07/26 00:46:24;;;;;;;12.73;12.20;;;24.40;21.50;;;;;;6214465;23;20152;-72
2022/07/26 00:48:50;;;;;;;12.13;11.73;;;24.40;21.60;;;;;;6214610;23;20398;-72
2022/07/26 00:51:16;;;;;;;12.97;12.47;;;24.30;21.70;;;;;;6214367;23;20394;-72
2022/07/26 00:53:44;;;;;;;12.43;12.03;;;24.30;21.80;;;;;;6214512;23;20156;-72
2022/07/26 00:56:10;;;;;;;13.20;12.70;;;24.30;22.00;;;;;;6214259;23;20184;-72
2022/07/26 00:58:35;;;;;;;13.33;12.73;;;24.30;22.10;;;;;;6215636;23;20375;-72
2022/07/26 01:01:01;;;;;;;13.67;13.07;;;24.30;22.20;;;;;;6214020;23;20152;-71
2022/07/26 01:03:27;;;;;;;13.37;12.77;;;24.20;22.60;;;;;;6214372;23;20652;-72
2022/07/26 01:05:53;;;;;;;13.10;12.50;;;24.20;22.70;;;;;;6214473;23;20156;-72
2022/07/26 01:08:18;;;;;;;13.23;12.63;;;24.20;22.80;;;;;;6214279;23;20594;-72
2022/07/26 01:10:44;;;;;;;13.90;13.30;;;24.20;22.90;;;;;;6213964;23;20423;-72
2022/07/26 01:13:11;;;;;;;13.47;12.97;;;24.20;24.00;;;;;;6214599;23;20202;-72
2022/07/26 01:15:36;;;;;;;13.83;13.43;;;24.40;23.60;;;;;;6214202;23;20643;-72
2022/07/26 01:18:02;;;;;;;13.27;12.67;;;24.50;23.80;;;;;;6214425;23;20371;-72
2022/07/26 01:20:28;;;;;;;13.93;13.43;;;24.50;24.60;;;;;;6214302;23;20152;-72
2022/07/26 01:22:54;;;;;;;14.00;13.40;;;24.40;25.30;;;;;;6214080;23;20477;-72
2022/07/26 01:25:34;;;;;;;14.17;13.67;;;24.40;25.50;;;;;;6214243;23;20156;-72
2022/07/26 01:27:59;;;;;;;14.67;14.17;;;24.30;26.10;;;;;;6215714;23;20144;-72
2022/07/26 01:30:25;;;;;;;13.70;13.30;;;24.30;26.20;;;;;;6214189;23;20826;-72
2022/07/26 01:32:51;;;;;;;14.20;13.70;;;24.30;26.60;;;;;;6213916;23;20159;-72
2022/07/26 01:35:17;;;;;;;14.00;13.50;;;24.20;27.40;;;;;;6213896;23;20426;-72
2022/07/26 01:37:43;;;;;;;14.10;13.60;;;24.20;27.50;;;;;;6213952;23;20152;-72
2022/07/26 01:40:09;;;;;;;14.63;14.03;;;24.30;27.50;;;;;;6214156;23;20167;-72
2022/07/26 01:42:35;;;;;;;14.80;14.20;;;24.10;28.50;;;;;;6213890;23;20159;-72
2022/07/26 01:45:01;;;;;;;14.23;13.60;;;24.00;29.40;;;;;;6213954;23;20387;-72
2022/07/26 01:47:26;;;;;;;13.50;13.00;;;23.60;30.00;;;;;;6214207;23;20182;-72
2022/07/26 01:49:52;;;;;;;14.27;13.77;;;23.90;29.30;;;;;;6213805;23;20387;-72
2022/07/26 01:52:18;;;;;;;13.83;13.43;;;23.10;32.00;;;;;;6213901;23;20616;-72
2022/07/26 01:54:44;;;;;;;14.40;13.80;;;23.00;32.50;;;;;;6214256;23;20175;-72
2022/07/26 01:57:10;;;;;;;14.67;14.17;;;23.10;32.40;;;;;;6215690;23;20481;-72
2022/07/26 01:59:35;;;;;;;15.13;14.43;;;22.70;32.70;;;;;;6214042;23;20152;-72
2022/07/26 02:02:01;;;;;;;15.13;14.53;;;23.20;31.40;;;;;;6213536;23;20206;-72
2022/07/26 02:07:12;;;;;;;15.00;14.50;;;22.90;32.40;;;;;;6215662;23;20231;-72
2022/07/26 02:09:38;;;;;;;14.63;14.13;;;23.00;31.20;;;;;;6213280;23;20719;-71
2022/07/26 02:12:04;;;;;;;14.73;14.23;;;23.20;30.50;;;;;;6213361;23;20391;-72
2022/07/26 02:14:29;;;;;;;14.40;13.90;;;23.10;30.50;;;;;;6213376;23;20465;-72
2022/07/26 02:16:58;;;;;;;14.57;14.07;;;22.80;31.20;;;;;;6213424;23;20387;-71
2022/07/26 02:19:25;;;;;;;14.90;14.40;;;22.80;31.20;;;;;;6213582;23;20152;-72
2022/07/26 02:21:51;;;;;;;14.90;14.40;;;22.80;30.90;;;;;;6213088;23;20389;-72
2022/07/26 02:24:17;;;;;;;15.50;15.00;;;23.00;30.60;;;;;;6213513;23;20414;-72
2022/07/26 02:26:42;;;;;;;15.27;14.77;;;22.90;30.80;;;;;;6213316;23;20189;-71
2022/07/26 02:29:08;;;;;;;15.53;14.93;;;22.80;31.30;;;;;;6213552;23;20219;-72
2022/07/26 02:31:34;;;;;;;15.20;14.60;;;22.80;32.10;;;;;;6214741;23;20227;-71
2022/07/26 02:34:00;;;;;;;16.00;15.30;;;22.80;31.60;;;;;;6215037;23;20525;-72
2022/07/26 02:36:26;;;;;;;15.73;15.20;;;22.70;32.10;;;;;;6213383;23;20152;-72
2022/07/26 02:38:51;;;;;;;15.70;15.20;;;22.70;32.20;;;;;;6215636;23;20176;-72
2022/07/26 02:41:17;;;;;;;15.80;15.20;;;22.80;31.70;;;;;;6213208;23;20421;-72
2022/07/26 02:43:43;;;;;;;14.93;14.43;;;22.80;31.60;;;;;;6213351;23;20152;-72
2022/07/26 02:46:09;;;;;;;15.40;14.90;;;22.80;31.70;;;;;;6238693;23;20187;-72
2022/07/26 02:48:35;;;;;;;15.50;15.00;;;22.90;31.20;;;;;;6213195;23;20160;-72
2022/07/26 02:51:01;;;;;;;15.50;15.00;;;22.80;31.30;;;;;;6213223;23;20760;-72
2022/07/26 02:53:27;;;;;;;16.00;15.50;;;22.80;31.20;;;;;;6213599;23;20398;-71
2022/07/26 02:55:52;;;;;;;15.63;15.13;;;22.80;31.10;;;;;;6213215;23;20306;-72
2022/07/26 02:58:21;;;;;;;16.10;15.50;;;22.90;31.10;;;;;;6214876;23;20148;-72
2022/07/26 03:00:47;;;;;;;15.90;15.20;;;22.80;31.00;;;;;;6213442;23;20178;-72
2022/07/26 03:03:16;;;;;;;16.10;15.60;;;22.80;30.60;;;;;;6213633;23;20477;-72
2022/07/26 03:05:42;;;;;;;15.77;15.27;;;22.70;31.20;;;;;;6238503;23;20242;-71
2022/07/26 03:08:08;;;;;;;16.57;16.07;;;22.60;31.20;;;;;;6213151;23;20430;-72
2022/07/26 03:10:34;;;;;;;16.87;16.07;;;22.70;31.40;;;;;;6213052;23;20758;-72
2022/07/26 03:13:00;;;;;;;16.13;15.63;;;22.60;31.40;;;;;;6214538;23;20429;-72
2022/07/26 03:15:26;;;;;;;15.57;15.07;;;22.70;31.10;;;;;;6212997;23;20757;-72
2022/07/26 03:17:52;;;;;;;16.50;15.73;;;22.70;30.90;;;;;;6214549;23;20363;-72
2022/07/26 03:20:18;;;;;;;15.50;15.00;;;22.80;30.80;;;;;;6213187;23;20202;-72
2022/07/26 03:22:43;;;;;;;15.47;14.97;;;22.80;30.60;;;;;;6214606;23;20144;-72
2022/07/26 03:25:09;;;;;;;15.97;15.47;;;23.00;30.00;;;;;;6213120;23;20155;-72
2022/07/26 03:27:35;;;;;;;15.93;15.33;;;22.90;30.40;;;;;;6213027;23;20605;-72
2022/07/26 03:30:04;;;;;;;16.10;15.40;;;22.80;30.60;;;;;;6212751;23;20152;-72
2022/07/26 03:32:30;;;;;;;15.20;14.70;;;22.70;30.90;;;;;;6212756;23;20294;-72
2022/07/26 03:34:56;;;;;;;16.33;15.63;;;22.70;30.70;;;;;;6238174;23;20466;-72
2022/07/26 03:37:22;;;;;;;15.57;15.07;;;22.70;30.70;;;;;;6214457;23;20148;-72
2022/07/26 03:39:48;;;;;;;16.33;15.83;;;22.70;30.90;;;;;;6212998;23;20202;-72
2022/07/26 03:42:14;;;;;;;16.50;15.90;;;22.60;31.20;;;;;;6212817;23;20159;-72
2022/07/26 03:44:43;;;;;;;17.17;16.47;;;22.60;31.40;;;;;;6212936;23;20852;-72
2022/07/26 03:47:09;;;;;;;16.40;15.87;;;22.70;31.30;;;;;;6213288;23;20521;-72
2022/07/26 03:49:34;;;;;;;16.73;16.13;;;22.50;31.70;;;;;;6214353;23;20414;-72
2022/07/26 03:52:00;;;;;;;16.83;16.23;;;22.60;31.40;;;;;;6213028;23;20483;-72
2022/07/26 03:54:26;;;;;;;16.60;16.00;;;22.50;31.40;;;;;;6214394;23;20185;-72
2022/07/26 03:56:52;;;;;;;17.20;16.60;;;22.50;32.00;;;;;;6212902;23;20163;-72
2022/07/26 03:59:18;;;;;;;17.50;16.70;;;22.80;30.30;;;;;;6212713;23;20166;-72
2022/07/26 04:01:46;;;;;;;17.00;16.40;;;23.10;29.80;;;;;;6212608;23;20152;-72
2022/07/26 04:04:14;;;;;;;17.20;16.60;;;23.00;29.70;;;;;;6213015;23;20383;-72
2022/07/26 04:06:40;;;;;;;17.73;17.00;;;22.90;30.00;;;;;;6215011;23;20466;-72
2022/07/26 04:09:06;;;;;;;17.30;16.50;;;23.20;29.40;;;;;;6213449;23;20375;-72
2022/07/26 04:11:35;;;;;;;17.50;16.90;;;23.40;28.70;;;;;;6212851;23;20379;-72
2022/07/26 04:14:01;;;;;;;17.77;17.03;;;23.60;28.30;;;;;;6213428;23;20468;-72
2022/07/26 04:16:27;;;;;;;17.63;16.87;;;23.70;27.90;;;;;;6215221;23;20379;-72
2022/07/26 04:18:53;;;;;;;18.03;17.37;;;23.40;28.80;;;;;;6213079;23;20856;-72
2022/07/26 04:21:19;;;;;;;18.13;17.50;;;23.20;29.20;;;;;;6213421;23;20382;-72
2022/07/26 04:23:45;;;;;;;18.20;17.50;;;22.80;29.90;;;;;;6213801;23;20387;-72
2022/07/26 04:26:12;;;;;;;18.17;17.40;;;22.80;30.00;;;;;;6213346;23;20445;-72
2022/07/26 04:28:42;;;;;;;19.30;18.60;;;22.50;31.00;;;;;;6213657;23;20156;-72
2022/07/26 04:31:08;;;;;;;17.47;16.87;;;22.40;31.50;;;;;;6213278;23;20383;-72
2022/07/26 04:33:35;;;;;;;17.93;17.10;;;22.40;32.00;;;;;;6214949;23;20383;-72
2022/07/26 04:36:02;;;;;;;18.77;17.97;;;22.30;31.90;;;;;;6215325;23;20383;-72
2022/07/26 04:38:27;;;;;;;18.30;17.60;;;22.10;32.30;;;;;;6215156;23;20406;-72
2022/07/26 04:40:54;;;;;;;18.00;17.20;;;22.00;32.80;;;;;;6216392;23;20375;-72
2022/07/26 04:43:20;;;;;;;18.83;18.03;;;22.00;32.70;;;;;;6215134;23;20156;-72
2022/07/26 04:45:47;;;;;;;17.80;17.10;;;22.10;32.50;;;;;;6214784;23;20490;-72
2022/07/26 04:48:13;;;;;;;17.83;17.23;;;22.10;32.50;;;;;;6214513;23;20466;-73
2022/07/26 04:50:43;;;;;;;17.97;17.27;;;22.20;32.20;;;;;;6214050;23;20391;-72
2022/07/26 04:53:10;;;;;;;19.00;18.30;;;22.10;32.50;;;;;;6215984;23;20383;-72
2022/07/26 04:55:36;;;;;;;19.17;18.13;;;22.00;32.90;;;;;;6214210;23;20383;-72
2022/07/26 04:58:03;;;;;;;18.60;17.60;;;21.90;33.10;;;;;;6214602;23;20474;-73
2022/07/26 05:00:29;;;;;;;18.43;17.63;;;22.10;32.50;;;;;;6213959;23;20469;-72
2022/07/26 05:02:57;;;;;;;18.90;17.93;;;22.00;32.80;;;;;;6214298;23;20472;-72
2022/07/26 05:05:24;;;;;;;19.97;19.07;;;21.90;33.30;;;;;;6214082;23;20427;-72
2022/07/26 05:07:54;;;;;;;18.40;17.70;;;21.80;33.40;;;;;;6214170;23;20482;-72
2022/07/26 05:10:21;;;;;;;19.40;18.70;;;22.10;32.40;;;;;;6214412;23;20465;-68
2022/07/26 05:12:48;;;;;;;20.53;19.40;;;22.00;33.00;;;;;;6214172;23;20470;-68
2022/07/26 05:15:14;;;;;;;19.23;18.53;;;21.90;33.30;;;;;;6214112;23;20410;-68
2022/07/26 05:17:44;;;;;;;17.40;16.70;;;22.20;32.20;;;;;;6214550;23;20825;-70
2022/07/26 05:20:13;;;;;;;18.33;17.60;;;22.50;31.50;;;;;;6213767;23;20380;-68
2022/07/26 05:22:41;;;;;;;16.80;16.20;;;22.40;32.00;;;;;;6214311;23;20391;-68
2022/07/26 05:25:08;;;;;;;18.23;17.53;;;22.10;32.60;;;;;;6213897;23;20454;-68
2022/07/26 05:27:34;;;;;;;18.80;17.90;;;22.00;32.90;;;;;;6214082;23;20441;-68
2022/07/26 05:30:00;;;;;;;18.30;17.60;;;22.10;32.90;;;;;;6213479;23;20459;-68
2022/07/26 05:32:27;;;;;;;18.50;17.80;;;22.00;33.10;;;;;;6214077;23;20419;-69
2022/07/26 05:34:55;;;;;;;19.40;18.60;;;22.10;33.10;;;;;;6210738;23;20167;-68
2022/07/26 05:37:20;;;;;;;19.03;18.20;;;22.10;32.90;;;;;;6213970;23;20814;-68
2022/07/26 05:39:46;;;;;;;18.20;17.60;;;22.10;33.00;;;;;;6213983;23;20379;-68
2022/07/26 05:42:12;;;;;;;18.07;17.07;;;22.30;31.90;;;;;;6213953;23;20434;-69
2022/07/26 05:44:38;;;;;;;18.30;17.50;;;22.50;32.00;;;;;;6214705;23;20251;-69
2022/07/26 05:47:07;;;;;;;18.30;17.63;;;22.60;31.20;;;;;;6213897;23;20156;-69
2022/07/26 05:49:33;;;;;;;17.30;16.60;;;22.40;32.00;;;;;;6214126;23;20188;-69
2022/07/26 05:51:59;;;;;;;17.47;16.87;;;22.40;32.00;;;;;;6215118;23;20371;-69
2022/07/26 05:54:25;;;;;;;18.13;17.33;;;22.10;32.70;;;;;;6215166;23;20751;-69
2022/07/26 05:56:50;;;;;;;18.77;17.87;;;22.10;32.80;;;;;;6212851;23;20532;-68
2022/07/26 05:59:16;;;;;;;18.67;17.60;;;22.10;32.90;;;;;;6213896;23;20239;-69
2022/07/26 06:01:42;;;;;;;17.83;17.13;;;22.30;32.40;;;;;;6213197;23;20590;-68
2022/07/26 06:04:09;;;;;;;17.53;16.73;;;22.30;31.90;;;;;;6213697;23;20163;-69
2022/07/26 06:06:34;;;;;;;17.87;17.00;;;22.30;31.90;;;;;;6213410;23;20497;-68
2022/07/26 06:09:00;;;;;;;17.50;16.60;;;22.30;31.90;;;;;;6213125;23;20379;-68
2022/07/26 06:11:26;;;;;;;17.60;16.90;;;22.30;31.90;;;;;;6215009;23;20158;-68
2022/07/26 06:13:52;;;;;;;17.03;16.40;;;22.50;30.60;;;;;;6212005;23;20175;-68
2022/07/26 06:16:18;;;;;;;15.83;15.30;;;22.70;29.00;;;;;;6213434;23;20206;-68
2022/07/26 06:18:43;;;;;;;16.50;15.90;;;22.90;28.10;;;;;;6214962;23;20172;-69
2022/07/26 06:21:09;;;;;;;16.27;15.47;;;23.00;27.90;;;;;;6213522;23;20199;-68
2022/07/26 06:23:35;;;;;;;15.50;14.90;;;23.00;26.80;;;;;;6213538;23;20160;-68
2022/07/26 06:26:02;;;;;;;16.13;15.47;;;23.00;27.20;;;;;;6213206;23;20175;-68
2022/07/26 06:28:28;;;;;;;15.30;14.60;;;23.10;26.20;;;;;;6213050;23;20206;-68
2022/07/26 06:30:54;;;;;;;14.90;14.40;;;23.20;25.20;;;;;;6213316;23;20383;-68
2022/07/26 06:33:19;;;;;;;14.73;14.23;;;23.30;25.40;;;;;;6214675;23;20144;-68
2022/07/26 06:35:45;;;;;;;14.60;14.00;;;23.10;25.60;;;;;;6214756;23;20179;-69
2022/07/26 06:38:11;;;;;;;14.70;14.10;;;23.20;24.10;;;;;;6213402;23;20416;-68
2022/07/26 06:40:36;;;;;;;14.90;14.30;;;23.20;24.30;;;;;;6213270;23;20167;-68
2022/07/26 06:43:02;;;;;;;13.63;13.13;;;23.20;23.90;;;;;;6213228;23;20229;-68
2022/07/26 06:45:29;;;;;;;14.87;14.27;;;23.30;24.10;;;;;;6213172;23;20187;-68
2022/07/26 06:47:55;;;;;;;14.50;13.90;;;23.30;22.90;;;;;;6213392;23;20382;-68
2022/07/26 06:50:22;;;;;;;14.03;13.53;;;23.20;22.30;;;;;;6212766;23;20845;-68
2022/07/26 06:52:48;;;;;;;13.97;13.43;;;23.40;22.10;;;;;;6213023;23;20375;-68
2022/07/26 06:55:14;;;;;;;13.90;13.30;;;23.40;22.00;;;;;;6212839;23;20470;-68
2022/07/26 06:57:40;;;;;;;13.87;13.37;;;23.40;21.40;;;;;;6213099;23;20160;-69
2022/07/26 07:00:07;;;;;;;13.50;13.00;;;23.40;21.00;;;;;;6212658;23;20218;-68
2022/07/26 07:02:34;;;;;;;13.37;12.57;;;23.50;21.20;;;;;;6214601;23;20378;-68
2022/07/26 07:04:59;;;;;;;13.73;13.13;;;23.40;19.60;;;;;;6212518;23;20426;-68
2022/07/26 07:07:26;;;;;;;12.80;12.40;;;23.40;19.70;;;;;;6213269;23;20379;-68
2022/07/26 07:09:51;;;;;;;12.07;11.57;;;23.40;19.30;;;;;;6214377;23;20231;-68
2022/07/26 07:12:17;;;;;;;12.70;12.20;;;23.60;18.90;;;;;;6213248;23;20407;-68
2022/07/26 07:14:43;;;;;;;12.30;11.90;;;23.60;19.10;;;;;;6212847;23;20182;-68
2022/07/26 07:17:09;;;;;;;12.77;12.33;;;23.60;19.00;;;;;;6212849;23;20640;-69
2022/07/26 07:19:36;;;;;;;12.80;12.20;;;23.70;19.30;;;;;;6238235;23;20589;-68
2022/07/26 07:22:03;;;;;;;12.53;12.00;;;23.50;19.30;;;;;;6212738;23;20425;-68
2022/07/26 07:24:30;;;;;;;12.43;12.03;;;23.60;19.00;;;;;;6212603;23;20812;-67
2022/07/26 07:26:55;;;;;;;12.70;12.17;;;23.70;19.70;;;;;;6214081;23;20375;-69
2022/07/26 07:29:21;;;;;;;12.37;11.80;;;23.70;19.90;;;;;;6212992;23;20375;-69
2022/07/26 07:31:47;;;;;;;12.10;11.53;;;23.80;18.90;;;;;;6212683;23;20206;-69
2022/07/26 07:34:17;;;;;;;12.57;11.97;;;23.80;18.60;;;;;;6212737;23;20152;-69
2022/07/26 07:36:43;;;;;;;12.17;11.67;;;23.80;18.90;;;;;;6212403;23;20394;-69
2022/07/26 07:39:09;;;;;;;12.23;11.77;;;23.80;18.30;;;;;;6212608;23;20407;-69
2022/07/26 07:41:37;;;;;;;12.87;12.47;;;24.00;17.60;;;;;;6212563;23;20459;-69
2022/07/26 07:44:04;;;;;;;12.80;12.00;;;24.00;17.80;;;;;;6212837;23;20406;-68
2022/07/26 07:46:30;;;;;;;12.40;12.00;;;24.10;16.80;;;;;;6212143;23;20415;-68
2022/07/26 07:48:59;;;;;;;13.77;13.17;;;24.20;17.00;;;;;;6212960;23;20434;-68
2022/07/26 07:51:26;;;;;;;13.63;12.93;;;24.20;16.80;;;;;;6211112;23;20391;-68
2022/07/26 07:53:52;;;;;;;12.80;12.20;;;24.20;17.10;;;;;;6211793;23;20379;-68
2022/07/26 07:56:17;;;;;;;12.33;11.93;;;24.30;16.70;;;;;;6211942;23;20619;-67
2022/07/26 07:58:43;;;;;;;12.40;12.00;;;24.20;16.60;;;;;;6211961;23;20156;-68
2022/07/26 08:01:09;;;;;;;12.00;11.60;;;24.20;16.50;;;;;;6213514;23;20163;-69
2022/07/26 08:03:35;;;;;;;12.60;12.10;;;24.20;17.00;;;;;;6213509;23;20211;-70
2022/07/26 08:06:01;;;;;;;13.10;12.60;;;24.20;16.40;;;;;;6215157;23;20254;-69
2022/07/26 08:08:27;;;;;;;12.80;12.30;;;24.30;16.60;;;;;;6216487;23;20638;-71
2022/07/26 08:10:53;;;;;;;13.03;12.50;;;24.30;16.30;;;;;;6215525;23;20403;-70
2022/07/26 08:13:20;;;;;;;13.00;12.43;;;24.30;16.20;;;;;;6215023;23;20220;-70
2022/07/26 08:15:46;;;;;;;13.23;12.63;;;24.30;16.50;;;;;;6215043;23;20612;-70
2022/07/26 08:18:11;;;;;;;12.60;12.10;;;24.30;16.80;;;;;;6215075;23;20478;-71
2022/07/26 08:20:37;;;;;;;13.57;13.07;;;24.30;16.80;;;;;;6214571;23;20588;-71
2022/07/26 08:23:03;;;;;;;12.53;12.13;;;24.30;16.00;;;;;;6216410;23;20156;-71
2022/07/26 08:25:28;;;;;;;13.47;12.73;;;24.30;16.30;;;;;;6216263;23;20247;-72
2022/07/26 08:27:54;;;;;;;12.80;12.30;;;24.30;17.20;;;;;;6214905;23;20190;-71
2022/07/26 08:30:20;;;;;;;13.17;12.60;;;24.30;16.00;;;;;;6216073;23;20144;-71
2022/07/26 08:32:46;;;;;;;13.37;12.97;;;24.30;16.00;;;;;;6216191;23;20152;-71
2022/07/26 08:35:12;;;;;;;13.10;12.57;;;24.50;16.10;;;;;;6216282;23;20384;-71
2022/07/26 08:37:37;;;;;;;13.40;12.90;;;24.60;15.40;;;;;;6214673;23;20235;-71
2022/07/26 08:40:04;;;;;;;12.93;12.43;;;24.60;15.50;;;;;;6214413;23;20206;-71
2022/07/26 08:42:30;;;;;;;13.10;12.50;;;24.50;15.40;;;;;;6216167;23;20224;-71
2022/07/26 08:44:56;;;;;;;12.90;12.40;;;24.60;15.10;;;;;;6214610;23;20450;-71
2022/07/26 08:47:22;;;;;;;14.13;13.57;;;24.90;14.60;;;;;;6216161;23;20382;-71
2022/07/26 08:49:48;;;;;;;12.37;11.87;;;24.90;14.40;;;;;;6214497;23;20148;-71
2022/07/26 08:52:15;;;;;;;13.10;12.60;;;24.70;14.60;;;;;;6214313;23;20158;-72
2022/07/26 08:54:45;;;;;;;13.67;13.07;;;24.70;14.90;;;;;;6214497;23;20159;-72
2022/07/26 08:57:11;;;;;;;13.83;13.13;;;24.70;14.80;;;;;;6214484;23;20411;-72
2022/07/26 08:59:37;;;;;;;13.47;12.97;;;24.80;16.30;;;;;;6216056;23;20375;-71
2022/07/26 09:02:06;;;;;;;14.13;13.53;;;24.80;14.40;;;;;;6214258;23;20700;-71
2022/07/26 09:04:34;;;;;;;13.67;13.17;;;24.70;15.10;;;;;;6214320;23;20426;-71
2022/07/26 09:07:09;;;;;;;13.90;13.40;;;24.90;15.10;;;;;;6214219;23;20457;-71
2022/07/26 09:09:57;;;;;;;13.50;12.90;;;24.80;14.90;;;;;;6214390;23;20385;-71
2022/07/26 09:12:24;;;;;;;13.33;12.77;;;24.80;14.40;;;;;;6216245;23;20360;-71
2022/07/26 09:14:51;;;;;;;13.70;13.20;;;24.70;14.30;;;;;;6215724;23;20457;-71
2022/07/26 09:17:19;;;;;;;13.80;12.83;;;24.60;14.90;;;;;;6214635;23;20478;-71
2022/07/26 09:19:45;;;;;;;13.33;12.80;;;24.60;14.40;;;;;;6214014;23;20379;-71
2022/07/26 09:22:14;;;;;;;14.33;13.63;;;24.80;13.50;;;;;;6214071;23;20394;-71
2022/07/26 09:24:45;;;;;;;13.70;13.10;;;25.00;13.70;;;;;;6214265;23;20423;-71
2022/07/26 09:27:13;;;;;;;13.43;12.93;;;24.90;14.40;;;;;;6214076;23;20462;-71
2022/07/26 09:29:47;;;;;;;14.40;13.37;;;24.90;14.90;;;;;;6214044;23;20390;-71
2022/07/26 09:32:15;;;;;;;13.63;13.13;;;25.10;13.00;;;;;;6213712;23;20737;-71
2022/07/26 09:34:42;;;;;;;13.67;13.27;;;25.10;13.70;;;;;;6213854;23;20394;-71
2022/07/26 09:37:08;;;;;;;13.43;12.93;;;25.00;14.10;;;;;;6213973;23;20391;-71
2022/07/26 09:39:58;;;;;;;14.13;13.53;;;25.10;13.10;;;;;;6213872;23;20484;-71
2022/07/26 09:42:25;;;;;;;13.60;13.00;;;25.20;13.80;;;;;;6214350;23;20156;-72
2022/07/26 09:44:52;;;;;;;13.27;12.77;;;25.20;13.60;;;;;;6213575;23;20433;-71
2022/07/26 09:47:17;;;;;;;13.80;13.10;;;25.20;14.80;;;;;;6215336;23;20375;-72
2022/07/26 09:49:43;;;;;;;14.20;13.50;;;25.10;14.00;;;;;;6212847;23;20853;-70
2022/07/26 09:52:20;;;;;;;13.33;12.73;;;24.90;15.00;;;;;;6213232;23;20390;-70
2022/07/26 09:54:48;;;;;;;13.33;12.83;;;24.80;14.50;;;;;;6213952;23;20390;-69
2022/07/26 09:57:19;;;;;;;12.70;12.30;;;25.10;14.30;;;;;;6214056;23;20390;-69
2022/07/26 09:59:46;;;;;;;12.40;12.00;;;25.30;14.10;;;;;;6214051;23;20382;-69
2022/07/26 10:02:13;;;;;;;13.27;12.73;;;25.30;14.60;;;;;;6213934;23;20391;-69
2022/07/26 10:04:42;;;;;;;13.13;12.50;;;25.20;14.60;;;;;;6213941;23;20480;-70
2022/07/26 10:07:09;;;;;;;13.10;12.70;;;25.20;14.40;;;;;;6214241;23;20440;-73
2022/07/26 10:09:56;;;;;;;13.30;12.80;;;25.40;14.30;;;;;;6214230;23;20453;-70
2022/07/26 10:12:25;;;;;;;13.00;12.50;;;25.50;13.60;;;;;;6214278;23;20832;-68
2022/07/26 10:14:51;;;;;;;13.57;12.83;;;25.50;14.80;;;;;;6214036;23;20805;-69
2022/07/26 10:17:28;;;;;;;13.60;12.80;;;25.60;14.40;;;;;;6214076;23;20383;-68
2022/07/26 10:19:54;;;;;;;13.03;12.63;;;25.90;14.60;;;;;;6213591;23;20171;-69
2022/07/26 10:22:26;;;;;;;12.53;12.03;;;26.00;13.50;;;;;;6213948;23;20384;-68
2022/07/26 10:24:53;;;;;;;12.97;12.47;;;25.90;13.20;;;;;;6213869;23;20571;-68
2022/07/26 10:27:39;;;;;;;12.70;12.20;;;26.10;13.30;;;;;;6214080;23;20457;-68
2022/07/26 10:30:17;;;;;;;12.87;12.47;;;26.30;12.90;;;;;;6213470;23;20851;-68
2022/07/26 10:33:05;;;;;;;13.40;12.90;;;26.60;12.80;;;;;;6213861;23;20390;-68
2022/07/26 10:35:44;;;;;;;13.87;13.37;;;26.70;12.90;;;;;;6215861;23;20745;-68
2022/07/26 10:38:13;;;;;;;14.20;13.60;;;26.40;13.30;;;;;;6213991;23;20367;-68
2022/07/26 10:41:18;;;;;;;13.20;12.60;;;26.30;13.00;;;;;;6213106;23;20422;-68
2022/07/26 10:44:11;;;;;;;13.67;13.00;;;25.80;13.80;;;;;;6210045;23;20417;-68
2022/07/26 10:46:58;;;;;;;12.40;11.90;;;26.10;13.60;;;;;;6212794;23;20390;-68
2022/07/26 10:49:38;;;;;;;11.90;11.50;;;26.00;12.60;;;;;;6212267;23;20750;-68
2022/07/26 10:52:17;;;;;;;11.60;11.20;;;25.80;13.90;;;;;;6212079;23;20402;-68
2022/07/26 10:55:12;;;;;;;12.20;11.80;;;25.70;13.60;;;;;;6213373;23;20379;-68
2022/07/26 10:57:43;;;;;;;12.70;12.20;;;25.80;13.40;;;;;;6203339;23;20380;-68
2022/07/26 11:00:13;;;;;;;12.73;12.33;;;25.80;14.30;;;;;;6213506;23;20371;-68
2022/07/26 11:02:42;;;;;;;13.00;12.40;;;25.70;14.00;;;;;;6213522;23;20379;-68
2022/07/26 11:05:13;;;;;;;12.40;11.90;;;25.70;13.40;;;;;;6213577;23;20423;-68
2022/07/26 11:07:55;;;;;;;12.57;11.97;;;25.70;12.60;;;;;;6213650;23;20832;-68
2022/07/26 11:10:29;;;;;;;12.20;11.80;;;25.60;12.80;;;;;;6213497;23;20386;-68
2022/07/26 11:13:07;;;;;;;12.70;12.20;;;25.50;12.70;;;;;;6215706;23;20366;-68
2022/07/26 11:15:34;;;;;;;11.83;11.40;;;25.50;13.60;;;;;;6213422;23;20413;-68
2022/07/26 11:18:20;;;;;;;12.70;12.00;;;25.40;14.20;;;;;;6213296;23;20391;-68
2022/07/26 11:20:48;;;;;;;12.33;11.93;;;25.50;14.10;;;;;;6213397;23;20430;-68
2022/07/26 11:23:32;;;;;;;12.20;11.80;;;25.50;14.80;;;;;;6213374;23;20441;-68
2022/07/26 11:26:17;;;;;;;13.03;12.50;;;25.40;12.90;;;;;;6213533;23;20450;-73
2022/07/26 11:28:53;;;;;;;13.60;13.00;;;25.50;12.90;;;;;;6213433;23;20375;-68
2022/07/26 11:31:27;;;;;;;12.97;12.57;;;25.50;12.40;;;;;;6213595;23;20383;-68
2022/07/26 11:33:54;;;;;;;14.57;13.87;;;25.50;12.30;;;;;;6213448;23;20430;-68
2022/07/26 11:36:40;;;;;;;13.23;12.67;;;25.30;13.40;;;;;;6213193;23;20387;-68
2022/07/26 11:39:12;;;;;;;13.50;13.00;;;25.30;13.00;;;;;;6212901;23;20458;-68
2022/07/26 11:41:39;;;;;;;13.63;13.13;;;25.40;12.80;;;;;;6213394;23;20387;-68
2022/07/26 11:44:05;;;;;;;13.67;13.10;;;25.30;12.20;;;;;;6214794;23;20386;-68
2022/07/26 11:46:34;;;;;;;13.60;13.20;;;25.40;12.20;;;;;;6214883;23;20934;-68
2022/07/26 11:49:00;;;;;;;13.87;13.37;;;25.70;11.20;;;;;;6214783;23;20706;-68
2022/07/26 11:51:26;;;;;;;14.10;13.50;;;25.70;11.50;;;;;;6215151;23;20389;-68
2022/07/26 11:53:58;;;;;;;13.80;13.07;;;25.60;12.30;;;;;;6214709;23;20475;-68
2022/07/26 11:56:27;;;;;;;14.40;13.70;;;25.60;11.90;;;;;;6215314;23;20371;-68
2022/07/26 11:58:55;;;;;;;13.90;13.33;;;25.50;12.20;;;;;;6214715;23;20452;-68
2022/07/26 12:01:22;;;;;;;13.10;12.70;;;25.80;11.00;;;;;;6214696;23;20437;-68
2022/07/26 12:03:51;;;;;;;14.27;13.30;;;25.60;12.10;;;;;;6214601;23;20773;-68
2022/07/26 12:06:24;;;;;;;13.63;13.10;;;25.50;12.20;;;;;;6214447;23;20743;-69
2022/07/26 12:08:55;;;;;;;14.20;13.60;;;25.40;12.20;;;;;;6214812;23;20378;-68
2022/07/26 12:11:34;;;;;;;13.97;13.47;;;25.30;11.80;;;;;;6214773;23;20387;-68
2022/07/26 12:14:05;;;;;;;13.53;12.80;;;25.30;12.40;;;;;;6216081;23;20365;-68
2022/07/26 12:16:46;;;;;;;13.50;12.90;;;25.50;11.70;;;;;;6240062;23;20379;-68
2022/07/26 12:19:15;;;;;;;13.33;12.83;;;25.50;11.30;;;;;;6216006;23;20383;-69
2022/07/26 12:21:49;;;;;;;13.10;12.70;;;25.70;11.00;;;;;;6214444;23;20414;-68
2022/07/26 12:24:44;;;;;;;13.13;12.73;;;25.60;10.70;;;;;;6214467;23;20390;-68
2022/07/26 12:27:23;;;;;;;13.40;12.73;;;25.50;10.90;;;;;;6214710;23;20383;-68
2022/07/26 12:29:50;;;;;;;13.20;12.80;;;25.30;11.20;;;;;;6215967;23;20367;-69
2022/07/26 12:32:33;;;;;;;13.80;13.30;;;25.30;11.70;;;;;;6216207;23;20413;-68
2022/07/26 12:35:04;;;;;;;13.40;12.90;;;25.30;11.40;;;;;;6214778;23;20466;-68
2022/07/26 12:37:33;;;;;;;13.53;12.60;;;25.30;11.00;;;;;;6214687;23;20378;-68